Time;durP1;ratioP1;P1;durP2;ratioP2;P2;SDS_P1;SDS_P2;PMS_P1;PMS_P2;Temp;Humidity;BMP_temperature;BMP_pressure;BME280_temperature;BME280_humidity;BME280_pressure;Samples;Min_cycle;Max_cycle;Signal;HPM_P1;HPM_P2
2023/01/06 00:01:15;;;;;;;2.20;0.80;;;10.60;99.90;;;;;;5039052;28;20481;-71
2023/01/06 00:03:41;;;;;;;1.13;0.60;;;10.70;99.90;;;;;;5052660;28;20692;-72
2023/01/06 00:06:10;;;;;;;2.70;0.80;;;10.70;99.90;;;;;;5051464;28;20889;-72
2023/01/06 00:08:36;;;;;;;2.17;0.70;;;10.80;99.90;;;;;;5036336;28;20186;-72
2023/01/06 00:11:14;;;;;;;1.50;0.70;;;10.80;99.90;;;;;;5033000;28;20936;-72
2023/01/06 00:13:40;;;;;;;2.57;0.63;;;10.80;99.90;;;;;;5049664;28;20463;-73
2023/01/06 00:16:11;;;;;;;1.10;0.70;;;10.80;99.90;;;;;;5053004;28;20455;-72
2023/01/06 00:18:37;;;;;;;1.63;0.60;;;10.80;99.90;;;;;;5036796;28;20936;-72
2023/01/06 00:21:03;;;;;;;2.43;0.70;;;10.80;99.90;;;;;;5032806;28;20484;-71
2023/01/06 00:23:28;;;;;;;1.37;0.60;;;10.70;99.90;;;;;;5047574;28;20431;-73
2023/01/06 00:25:54;;;;;;;1.43;0.70;;;10.70;99.90;;;;;;5052756;28;20455;-73
2023/01/06 00:28:19;;;;;;;1.67;0.80;;;10.70;99.90;;;;;;5039253;28;20208;-72
2023/01/06 00:30:45;;;;;;;3.53;1.00;;;10.70;99.90;;;;;;5032939;28;20166;-72
2023/01/06 00:33:11;;;;;;;2.50;1.13;;;10.70;99.90;;;;;;5043448;28;20850;-72
2023/01/06 00:35:36;;;;;;;4.73;1.13;;;10.60;99.90;;;;;;5052795;28;20430;-72
2023/01/06 00:38:03;;;;;;;7.43;1.30;;;10.50;99.90;;;;;;5041149;28;20181;-71
2023/01/06 00:40:29;;;;;;;3.03;1.10;;;10.50;99.90;;;;;;5032862;28;20249;-72
2023/01/06 00:42:54;;;;;;;3.37;1.20;;;10.50;99.90;;;;;;5039729;28;20543;-72
2023/01/06 00:45:19;;;;;;;1.73;0.80;;;10.50;99.90;;;;;;5051237;28;20252;-72
2023/01/06 00:47:45;;;;;;;1.50;0.80;;;10.40;99.90;;;;;;5042388;28;20188;-72
2023/01/06 00:50:11;;;;;;;2.33;0.90;;;10.30;99.90;;;;;;5032288;28;20182;-72
2023/01/06 00:52:36;;;;;;;3.60;1.30;;;10.30;99.90;;;;;;5037654;28;20621;-72
2023/01/06 00:55:02;;;;;;;2.20;1.20;;;10.20;99.90;;;;;;5051336;28;20180;-72
2023/01/06 00:57:27;;;;;;;1.93;1.00;;;10.10;99.90;;;;;;5045843;28;20178;-71
2023/01/06 00:59:53;;;;;;;2.10;1.20;;;10.00;99.90;;;;;;5032607;28;20182;-72
2023/01/06 01:02:19;;;;;;;1.73;1.00;;;9.90;99.90;;;;;;5035916;28;20266;-72
2023/01/06 01:04:44;;;;;;;2.17;0.90;;;10.00;99.90;;;;;;5053099;28;20260;-72
2023/01/06 01:07:09;;;;;;;3.47;1.13;;;9.90;99.90;;;;;;5048893;28;20220;-72
2023/01/06 01:09:35;;;;;;;1.93;1.27;;;9.90;99.90;;;;;;5032391;28;20248;-72
2023/01/06 01:12:13;;;;;;;1.20;1.00;;;9.90;99.90;;;;;;5032962;28;20228;-72
2023/01/06 01:14:48;;;;;;;1.73;1.00;;;9.80;99.90;;;;;;5052543;28;20219;-72
2023/01/06 01:17:18;;;;;;;3.27;0.90;;;9.80;99.90;;;;;;5048835;28;20424;-73
2023/01/06 01:19:43;;;;;;;4.47;0.87;;;9.80;99.90;;;;;;5032078;28;20440;-72
2023/01/06 01:22:09;;;;;;;3.30;0.70;;;9.90;99.90;;;;;;5033766;28;20452;-72
2023/01/06 01:24:35;;;;;;;1.20;0.70;;;9.90;99.90;;;;;;5051950;28;20623;-72
2023/01/06 01:27:00;;;;;;;1.17;0.67;;;9.90;99.90;;;;;;5050455;28;20204;-73
2023/01/06 01:29:26;;;;;;;1.53;0.60;;;10.00;99.90;;;;;;5031928;28;20655;-72
2023/01/06 01:31:52;;;;;;;1.20;0.90;;;10.00;99.90;;;;;;5031293;28;20304;-73
2023/01/06 01:34:18;;;;;;;2.23;0.83;;;10.10;99.90;;;;;;5051487;28;20535;-73
2023/01/06 01:36:46;;;;;;;6.87;0.87;;;10.20;99.90;;;;;;5051808;28;20412;-73
2023/01/06 01:39:13;;;;;;;9.60;0.80;;;10.20;99.90;;;;;;5051258;28;20438;-72
2023/01/06 01:41:39;;;;;;;15.47;0.80;;;10.30;99.90;;;;;;5051663;28;20431;-73
2023/01/06 01:44:42;;;;;;;21.10;0.87;;;10.20;99.90;;;;;;5051600;28;20415;-73
2023/01/06 01:47:10;;;;;;;20.30;0.80;;;10.30;99.90;;;;;;5051117;28;20201;-72
2023/01/06 01:49:39;;;;;;;20.43;1.00;;;10.30;99.90;;;;;;5051337;28;20441;-73
2023/01/06 01:52:08;;;;;;;23.17;0.73;;;10.30;99.90;;;;;;5051006;28;20436;-71
2023/01/06 01:54:35;;;;;;;24.53;0.90;;;10.30;99.90;;;;;;5051413;28;20408;-72
2023/01/06 01:57:06;;;;;;;25.27;0.90;;;10.30;99.90;;;;;;5051172;28;20408;-73
2023/01/06 01:59:34;;;;;;;22.83;0.80;;;10.30;99.90;;;;;;5051555;28;20510;-72
2023/01/06 03:32:42;;;;;;;2.10;0.70;;;10.60;99.90;;;;;;5235458;22;20487;-73
2023/01/06 03:35:51;;;;;;;2.80;1.00;;;10.60;99.90;;;;;;5051683;28;20783;-70
2023/01/06 03:38:56;;;;;;;2.10;0.67;;;10.50;99.90;;;;;;5042832;28;20446;-70
2023/01/06 03:44:43;;;;;;;3.70;1.03;;;10.30;99.90;;;;;;5073880;28;20461;-70
2023/01/06 03:47:26;;;;;;;2.80;1.03;;;10.10;99.90;;;;;;5070333;28;20478;-70
2023/01/06 03:50:15;;;;;;;2.93;0.90;;;10.00;99.90;;;;;;5064552;28;20518;-70
2023/01/06 03:53:17;;;;;;;2.63;1.00;;;9.90;99.90;;;;;;5064440;28;20873;-69
2023/01/06 03:55:48;;;;;;;2.90;1.03;;;9.80;99.90;;;;;;5073578;28;20418;-70
2023/01/06 03:58:15;;;;;;;2.93;1.10;;;9.70;99.90;;;;;;5073418;28;20419;-70
2023/01/06 04:00:41;;;;;;;3.57;1.13;;;9.60;99.90;;;;;;5060626;28;20485;-69
2023/01/06 04:03:10;;;;;;;3.23;1.17;;;9.50;99.90;;;;;;5068361;28;20415;-69
2023/01/06 04:05:36;;;;;;;3.10;1.00;;;9.40;99.90;;;;;;5073149;28;20203;-69
2023/01/06 04:08:02;;;;;;;3.00;0.90;;;9.30;99.90;;;;;;5071753;28;20454;-69
2023/01/06 04:10:27;;;;;;;4.00;1.07;;;9.20;99.90;;;;;;5059283;28;20679;-70
2023/01/06 04:12:53;;;;;;;2.97;1.00;;;9.10;99.90;;;;;;5065750;28;20269;-70
2023/01/06 04:15:21;;;;;;;3.77;1.20;;;9.00;99.90;;;;;;5073594;28;20180;-70
2023/01/06 04:17:47;;;;;;;3.33;1.07;;;8.90;99.90;;;;;;5072888;28;20188;-70
2023/01/06 04:20:15;;;;;;;3.17;1.03;;;8.80;99.90;;;;;;5061548;28;20450;-70
2023/01/06 04:22:41;;;;;;;2.77;0.83;;;8.70;99.90;;;;;;5061092;28;20456;-70
2023/01/06 04:25:07;;;;;;;3.13;1.13;;;8.70;99.90;;;;;;5073174;28;20411;-70
2023/01/06 04:27:32;;;;;;;3.17;0.90;;;8.60;99.90;;;;;;5073144;28;20672;-70
2023/01/06 04:29:58;;;;;;;2.60;0.80;;;8.60;99.90;;;;;;5063570;28;20428;-70
2023/01/06 04:32:24;;;;;;;4.53;1.00;;;8.60;99.90;;;;;;5058262;28;20292;-70
2023/01/06 04:34:50;;;;;;;3.50;1.00;;;8.60;99.90;;;;;;5072889;28;20188;-70
2023/01/06 04:37:15;;;;;;;3.63;1.10;;;8.60;99.90;;;;;;5072894;28;20415;-70
2023/01/06 04:39:41;;;;;;;4.63;1.60;;;8.50;99.90;;;;;;5065707;28;20526;-70
2023/01/06 04:42:06;;;;;;;3.00;0.90;;;8.50;99.90;;;;;;5055714;28;20732;-71
2023/01/06 04:44:32;;;;;;;3.30;1.40;;;8.50;99.90;;;;;;5072473;28;20179;-70
2023/01/06 04:46:58;;;;;;;4.73;1.23;;;8.50;99.90;;;;;;5072599;28;20287;-70
2023/01/06 04:49:23;;;;;;;2.80;1.33;;;8.60;99.90;;;;;;5068763;28;20184;-71
2023/01/06 04:51:49;;;;;;;3.17;0.90;;;8.60;99.90;;;;;;5052698;28;20228;-71
2023/01/06 04:54:14;;;;;;;2.13;1.07;;;8.60;99.90;;;;;;5067696;28;20205;-71
2023/01/06 04:56:40;;;;;;;4.23;0.90;;;8.60;99.90;;;;;;5052366;28;20610;-72
2023/01/06 04:59:05;;;;;;;1.77;1.10;;;8.70;99.90;;;;;;5053420;28;20530;-71
2023/01/06 05:01:30;;;;;;;2.10;1.07;;;8.70;99.90;;;;;;5072249;28;20246;-71
2023/01/06 05:03:56;;;;;;;1.87;1.00;;;8.80;99.90;;;;;;5054286;28;20220;-71
2023/01/06 05:06:22;;;;;;;1.60;1.17;;;8.80;99.90;;;;;;5052241;28;20235;-71
2023/01/06 05:08:47;;;;;;;6.37;3.10;;;8.80;99.90;;;;;;5052344;28;20271;-71
2023/01/06 05:11:21;;;;;;;2.87;1.60;;;8.80;99.90;;;;;;5070242;28;20453;-71
2023/01/06 05:13:47;;;;;;;2.00;1.40;;;8.80;99.90;;;;;;5055534;28;20226;-72
2023/01/06 05:16:17;;;;;;;2.70;1.23;;;8.90;99.90;;;;;;5052060;28;20827;-71
2023/01/06 05:18:43;;;;;;;2.63;1.47;;;8.90;99.90;;;;;;5052050;28;20848;-72
2023/01/06 05:21:09;;;;;;;2.67;1.20;;;8.90;99.90;;;;;;5069025;28;20460;-71
2023/01/06 05:23:36;;;;;;;4.40;1.73;;;9.00;99.90;;;;;;5057124;28;20514;-71
2023/01/06 05:26:02;;;;;;;3.57;1.40;;;9.00;99.90;;;;;;5052031;28;20494;-71
2023/01/06 05:28:28;;;;;;;2.77;1.10;;;9.00;99.90;;;;;;5051180;28;20451;-71
2023/01/06 05:31:02;;;;;;;3.17;1.40;;;9.00;99.90;;;;;;5064802;28;20200;-72
2023/01/06 05:33:28;;;;;;;2.67;1.53;;;9.10;99.90;;;;;;5064789;28;20512;-72
2023/01/06 05:36:06;;;;;;;4.60;1.50;;;9.10;99.90;;;;;;5071885;28;20417;-72
2023/01/06 05:38:32;;;;;;;4.17;1.70;;;9.10;99.90;;;;;;5071654;28;20832;-72
2023/01/06 05:40:58;;;;;;;2.10;1.17;;;9.10;99.90;;;;;;5056188;28;20447;-72
2023/01/06 05:43:24;;;;;;;2.83;1.50;;;9.10;99.90;;;;;;5063445;28;20677;-72
2023/01/06 05:45:51;;;;;;;4.10;1.77;;;9.10;99.90;;;;;;5069824;28;20242;-72
2023/01/06 05:48:16;;;;;;;2.80;1.70;;;9.10;99.90;;;;;;5065653;28;20436;-72
2023/01/06 05:50:42;;;;;;;3.60;1.50;;;9.10;99.90;;;;;;5051438;28;20400;-71
2023/01/06 05:53:07;;;;;;;3.23;1.67;;;9.10;99.90;;;;;;5052665;28;20645;-71
2023/01/06 05:55:33;;;;;;;2.00;1.13;;;9.10;99.90;;;;;;5051344;28;20218;-72
2023/01/06 05:57:58;;;;;;;2.90;1.47;;;9.10;99.90;;;;;;5051465;28;20168;-72
2023/01/06 06:00:24;;;;;;;2.20;1.20;;;9.10;99.90;;;;;;5052088;28;20188;-72
2023/01/06 06:02:49;;;;;;;3.60;1.50;;;9.10;99.90;;;;;;5070766;28;20558;-72
2023/01/06 06:05:15;;;;;;;2.53;1.57;;;9.10;99.90;;;;;;5051538;28;20184;-72
2023/01/06 06:07:40;;;;;;;2.43;1.40;;;9.10;99.90;;;;;;5051159;28;20557;-72
2023/01/06 06:10:08;;;;;;;3.20;1.30;;;9.10;99.90;;;;;;5051366;28;20657;-71
2023/01/06 06:12:33;;;;;;;5.50;1.33;;;9.20;99.90;;;;;;5050888;28;20192;-72
2023/01/06 06:14:59;;;;;;;2.40;1.13;;;9.20;99.90;;;;;;5069080;28;20426;-72
2023/01/06 06:17:24;;;;;;;4.07;1.57;;;9.20;99.90;;;;;;5070436;28;20184;-71
2023/01/06 06:19:50;;;;;;;3.57;1.13;;;9.30;99.90;;;;;;5070605;28;20644;-71
2023/01/06 06:22:15;;;;;;;4.43;1.20;;;9.40;99.90;;;;;;5061164;28;20208;-71
2023/01/06 06:24:41;;;;;;;4.00;2.00;;;9.40;99.90;;;;;;5065782;28;20192;-72
2023/01/06 06:27:06;;;;;;;4.80;1.57;;;9.40;99.90;;;;;;5070475;28;20207;-71
2023/01/06 06:29:32;;;;;;;3.77;1.30;;;9.40;99.90;;;;;;5071117;28;20249;-72
2023/01/06 06:31:57;;;;;;;5.70;1.40;;;9.40;99.90;;;;;;5064643;28;20666;-72
2023/01/06 06:34:23;;;;;;;7.80;4.00;;;9.50;99.90;;;;;;5062972;28;20191;-72
2023/01/06 06:36:49;;;;;;;5.77;1.87;;;9.50;99.90;;;;;;5057443;28;20235;-72
2023/01/06 06:39:14;;;;;;;4.43;1.50;;;9.40;99.90;;;;;;5051117;28;20181;-72
2023/01/06 06:41:40;;;;;;;6.43;1.80;;;9.40;99.90;;;;;;5056948;28;20279;-71
2023/01/06 06:44:05;;;;;;;7.87;3.20;;;9.40;99.90;;;;;;5065423;28;20188;-72
2023/01/06 06:46:31;;;;;;;5.00;1.40;;;9.50;99.90;;;;;;5054796;28;20200;-72
2023/01/06 06:48:56;;;;;;;6.50;1.33;;;9.40;99.90;;;;;;5055059;28;20328;-72
2023/01/06 06:51:22;;;;;;;6.70;1.63;;;9.50;99.90;;;;;;5054868;28;20205;-72
2023/01/06 06:53:48;;;;;;;4.83;0.83;;;9.50;99.90;;;;;;5067707;28;20186;-72
2023/01/06 06:56:18;;;;;;;4.90;0.80;;;9.60;99.90;;;;;;5054909;28;20175;-72
2023/01/06 06:58:43;;;;;;;8.10;1.13;;;9.70;99.90;;;;;;5054723;28;20415;-72
2023/01/06 07:01:12;;;;;;;5.00;0.70;;;9.80;99.90;;;;;;5054583;28;20434;-72
2023/01/06 07:03:37;;;;;;;2.03;0.77;;;9.90;99.90;;;;;;5059907;28;20191;-71
2023/01/06 07:06:06;;;;;;;1.50;0.93;;;10.00;99.90;;;;;;5074890;28;20456;-71
2023/01/06 07:08:32;;;;;;;1.87;0.90;;;10.10;99.90;;;;;;5074511;28;20176;-71
2023/01/06 07:10:58;;;;;;;1.90;0.90;;;10.20;99.90;;;;;;5061834;28;20431;-71
2023/01/06 07:13:23;;;;;;;2.10;0.97;;;10.20;99.90;;;;;;5071430;28;20181;-71
2023/01/06 07:15:49;;;;;;;1.73;0.77;;;10.30;99.90;;;;;;5075891;28;20175;-71
2023/01/06 07:18:14;;;;;;;1.47;0.80;;;10.20;99.90;;;;;;5075723;28;20172;-71
2023/01/06 07:20:40;;;;;;;1.90;1.00;;;10.20;99.90;;;;;;5074760;28;20198;-70
2023/01/06 07:23:05;;;;;;;2.30;0.80;;;10.20;99.90;;;;;;5074639;28;20563;-71
2023/01/06 07:25:31;;;;;;;3.00;1.13;;;10.20;99.90;;;;;;5075255;28;20172;-71
2023/01/06 07:27:59;;;;;;;1.80;1.10;;;10.20;99.90;;;;;;5075231;28;20668;-72
2023/01/06 07:30:26;;;;;;;3.07;1.20;;;10.20;99.90;;;;;;5075074;28;20165;-71
2023/01/06 07:32:52;;;;;;;2.50;1.10;;;10.20;99.90;;;;;;5074229;28;20458;-71
2023/01/06 07:35:18;;;;;;;1.90;1.23;;;10.20;99.90;;;;;;5073985;28;20797;-71
2023/01/06 07:37:44;;;;;;;3.63;1.57;;;10.20;99.90;;;;;;5074219;28;20252;-71
2023/01/06 07:40:10;;;;;;;4.00;1.57;;;10.10;99.90;;;;;;5074066;28;21060;-71
2023/01/06 07:42:35;;;;;;;5.70;1.50;;;10.00;99.90;;;;;;5073514;28;20562;-71
2023/01/06 07:45:02;;;;;;;3.73;1.57;;;10.00;99.90;;;;;;5074010;28;20431;-71
2023/01/06 07:47:27;;;;;;;1.93;1.40;;;10.00;99.90;;;;;;5073281;28;20208;-71
2023/01/06 07:49:53;;;;;;;3.80;1.70;;;9.90;99.90;;;;;;5073711;28;20938;-71
2023/01/06 07:52:18;;;;;;;2.50;1.60;;;9.90;99.90;;;;;;5072656;28;20254;-71
2023/01/06 07:54:44;;;;;;;3.10;1.63;;;9.90;99.90;;;;;;5073542;28;20283;-71
2023/01/06 07:57:09;;;;;;;3.03;1.10;;;9.90;99.90;;;;;;5073958;28;20179;-71
2023/01/06 07:59:35;;;;;;;2.00;1.30;;;9.90;99.90;;;;;;5073506;28;20180;-71
2023/01/06 08:02:00;;;;;;;2.50;1.10;;;9.90;99.90;;;;;;5073100;28;20215;-71
2023/01/06 08:04:26;;;;;;;3.00;1.30;;;9.90;99.90;;;;;;5073338;28;20547;-71
2023/01/06 08:06:51;;;;;;;3.63;1.87;;;9.80;99.90;;;;;;5069179;28;20266;-71
2023/01/06 08:09:17;;;;;;;4.30;1.53;;;9.80;99.90;;;;;;5072060;28;20207;-72
2023/01/06 08:11:42;;;;;;;3.90;1.80;;;9.80;99.90;;;;;;5071592;28;20619;-72
2023/01/06 08:14:10;;;;;;;5.80;1.83;;;9.80;99.90;;;;;;5071102;28;20215;-72
2023/01/06 08:16:37;;;;;;;5.90;1.83;;;9.70;99.90;;;;;;5071328;28;20300;-72
2023/01/06 08:19:03;;;;;;;3.97;1.93;;;9.60;99.90;;;;;;5072098;28;20454;-72
2023/01/06 08:21:29;;;;;;;3.90;1.40;;;9.60;99.90;;;;;;5053382;28;20517;-72
2023/01/06 08:23:54;;;;;;;292.20;67.97;;;9.60;99.90;;;;;;5050556;28;20478;-72
2023/01/06 08:26:20;;;;;;;2.40;0.87;;;9.60;99.90;;;;;;5052957;28;20648;-72
2023/01/06 08:28:46;;;;;;;3.90;1.53;;;9.50;99.90;;;;;;5052116;28;20204;-72
2023/01/06 08:31:14;;;;;;;2.53;0.70;;;9.50;99.90;;;;;;5051492;28;20226;-72
2023/01/06 08:33:40;;;;;;;1.77;0.90;;;9.40;99.90;;;;;;5059006;28;20199;-73
2023/01/06 08:36:07;;;;;;;3.10;0.70;;;9.40;99.90;;;;;;5061868;28;20617;-71
2023/01/06 08:38:34;;;;;;;2.23;0.80;;;9.30;99.90;;;;;;5052763;28;20201;-72
2023/01/06 08:41:01;;;;;;;1.77;0.83;;;9.30;99.90;;;;;;5051415;28;20468;-72
2023/01/06 08:43:28;;;;;;;2.70;1.00;;;9.40;99.90;;;;;;5056088;28;20450;-72
2023/01/06 08:45:58;;;;;;;7.10;1.07;;;9.30;99.90;;;;;;5063779;28;20981;-71
2023/01/06 08:48:23;;;;;;;1.83;0.90;;;9.30;99.90;;;;;;5051539;28;20425;-71
2023/01/06 08:50:49;;;;;;;11.33;1.37;;;9.40;99.90;;;;;;5051537;28;20537;-72
2023/01/06 08:53:14;;;;;;;1.30;0.90;;;9.30;99.90;;;;;;5058546;28;20219;-72
2023/01/06 08:55:41;;;;;;;1.17;0.73;;;9.40;99.90;;;;;;5071231;28;20254;-73
2023/01/06 08:58:08;;;;;;;1.70;1.00;;;9.30;99.90;;;;;;5071132;28;20280;-72
2023/01/06 09:00:35;;;;;;;4.70;1.10;;;9.30;99.90;;;;;;5071548;28;20440;-72
2023/01/06 09:03:00;;;;;;;2.53;1.10;;;9.40;99.90;;;;;;5069545;28;20509;-72
2023/01/06 09:05:26;;;;;;;2.17;1.40;;;9.40;99.90;;;;;;5070942;28;20957;-72
2023/01/06 09:07:52;;;;;;;3.77;1.70;;;9.40;99.90;;;;;;5070870;28;20239;-72
2023/01/06 09:10:18;;;;;;;2.47;1.20;;;9.40;99.90;;;;;;5071333;28;20621;-72
2023/01/06 09:12:44;;;;;;;2.77;2.53;;;9.50;99.90;;;;;;5070102;28;20734;-71
2023/01/06 09:15:10;;;;;;;2.03;1.50;;;9.60;99.90;;;;;;5070920;28;20438;-72
2023/01/06 09:17:35;;;;;;;4.60;1.43;;;9.60;99.90;;;;;;5070675;28;20458;-71
2023/01/06 09:20:01;;;;;;;0.93;0.70;;;9.60;99.90;;;;;;5070643;28;20208;-72
2023/01/06 09:22:26;;;;;;;2.47;0.87;;;9.70;99.90;;;;;;5071107;28;20291;-71
2023/01/06 09:24:52;;;;;;;1.77;0.77;;;9.80;99.90;;;;;;5071197;28;20184;-72
2023/01/06 09:27:17;;;;;;;0.80;0.60;;;9.90;99.90;;;;;;5070463;28;20211;-71
2023/01/06 09:29:43;;;;;;;1.40;0.70;;;9.90;99.90;;;;;;5071433;28;20211;-71
2023/01/06 09:32:08;;;;;;;2.50;0.60;;;10.10;99.90;;;;;;5071362;28;20204;-72
2023/01/06 09:34:34;;;;;;;1.37;1.00;;;10.10;99.90;;;;;;5071491;28;20665;-72
2023/01/06 09:36:59;;;;;;;26.57;13.80;;;10.20;99.90;;;;;;5071433;28;20191;-72
2023/01/06 09:39:25;;;;;;;5.80;2.73;;;10.20;99.90;;;;;;5071720;28;20597;-72
2023/01/06 09:42:16;;;;;;;2.40;1.77;;;10.30;99.90;;;;;;5071463;28;20217;-72
2023/01/06 09:44:48;;;;;;;1.50;0.90;;;10.30;99.90;;;;;;5071371;28;20816;-71
2023/01/06 09:47:19;;;;;;;1.97;1.10;;;10.50;99.90;;;;;;5071048;28;20515;-71
2023/01/06 09:49:50;;;;;;;1.67;1.57;;;10.60;99.90;;;;;;5071577;28;20918;-72
2023/01/06 09:52:54;;;;;;;2.90;1.00;;;11.00;99.90;;;;;;5071098;28;20466;-71
2023/01/06 09:55:33;;;;;;;0.80;0.70;;;11.40;99.90;;;;;;4988930;28;20513;-71
2023/01/06 09:58:31;;;;;;;2.80;0.90;;;12.00;99.90;;;;;;5063210;28;20418;-72
2023/01/06 10:01:00;;;;;;;2.90;0.70;;;12.60;99.90;;;;;;5057822;28;20804;-72
2023/01/06 10:03:26;;;;;;;1.10;0.77;;;12.70;99.90;;;;;;5070721;28;20446;-72
2023/01/06 10:06:25;;;;;;;0.70;0.60;;;12.60;99.90;;;;;;5071062;28;20520;-72
2023/01/06 10:09:15;;;;;;;0.80;0.70;;;12.60;99.90;;;;;;5070766;28;20508;-72
2023/01/06 10:11:47;;;;;;;1.57;0.70;;;12.60;99.90;;;;;;5070779;28;20486;-72
2023/01/06 10:14:42;;;;;;;2.30;0.73;;;12.80;99.90;;;;;;5071204;28;20415;-72
2023/01/06 10:17:26;;;;;;;2.80;0.50;;;13.00;99.90;;;;;;5053081;28;20487;-72
2023/01/06 10:20:29;;;;;;;2.47;1.40;;;13.00;99.90;;;;;;5071207;28;20415;-72
2023/01/06 10:23:15;;;;;;;0.83;0.50;;;12.80;99.90;;;;;;5070769;28;20477;-72
2023/01/06 10:25:49;;;;;;;2.23;0.53;;;12.70;99.90;;;;;;5070813;28;20422;-71
2023/01/06 10:28:17;;;;;;;0.70;0.40;;;12.40;99.90;;;;;;5066250;28;20843;-72
2023/01/06 10:30:54;;;;;;;1.47;0.60;;;12.30;99.90;;;;;;5054644;28;20461;-71
2023/01/06 10:33:24;;;;;;;1.77;0.50;;;12.30;99.90;;;;;;5058852;28;20419;-73
2023/01/06 10:35:50;;;;;;;0.70;0.60;;;12.30;99.90;;;;;;5070658;28;20415;-73
2023/01/06 10:38:17;;;;;;;0.80;0.60;;;12.40;99.90;;;;;;5070860;28;20796;-72
2023/01/06 10:40:43;;;;;;;1.27;0.43;;;12.50;99.90;;;;;;5070793;28;20860;-74
2023/01/06 10:43:12;;;;;;;2.40;0.50;;;12.60;99.90;;;;;;5070737;28;20423;-73
2023/01/06 10:45:40;;;;;;;0.80;0.43;;;12.70;99.90;;;;;;5070447;28;20641;-72
2023/01/06 10:48:11;;;;;;;0.60;0.40;;;12.80;99.90;;;;;;5065311;28;20474;-72
2023/01/06 10:50:37;;;;;;;1.43;0.40;;;12.80;99.90;;;;;;5049706;28;20480;-71
2023/01/06 10:53:04;;;;;;;0.60;0.40;;;12.70;99.90;;;;;;5050601;28;20455;-71
2023/01/06 10:55:38;;;;;;;1.80;1.20;;;12.60;99.90;;;;;;5050455;28;20454;-72
2023/01/06 10:58:32;;;;;;;0.60;0.40;;;12.50;99.90;;;;;;5069754;28;20455;-72
2023/01/06 11:01:07;;;;;;;0.70;0.40;;;12.30;99.90;;;;;;5070031;28;20600;-72
2023/01/06 11:03:33;;;;;;;0.60;0.30;;;12.30;99.90;;;;;;5069602;28;20969;-72
2023/01/06 11:06:26;;;;;;;0.60;0.30;;;12.20;99.90;;;;;;5069681;28;20526;-72
2023/01/06 11:08:52;;;;;;;0.70;0.40;;;12.20;99.90;;;;;;5069898;28;20450;-71
2023/01/06 11:11:19;;;;;;;0.80;0.40;;;12.20;99.90;;;;;;5069747;28;20965;-73
2023/01/06 11:13:54;;;;;;;0.50;0.30;;;12.10;99.90;;;;;;5069351;28;20201;-70
2023/01/06 11:16:35;;;;;;;0.67;0.50;;;12.00;99.90;;;;;;5070210;28;20446;-69
2023/01/06 11:19:04;;;;;;;0.60;0.40;;;12.00;99.90;;;;;;5069417;28;20431;-70
2023/01/06 11:21:45;;;;;;;0.60;0.40;;;12.00;99.90;;;;;;5069370;28;20946;-69
2023/01/06 11:24:20;;;;;;;1.07;0.40;;;12.00;99.90;;;;;;5069077;28;20442;-70
2023/01/06 11:26:58;;;;;;;1.47;0.43;;;12.00;99.90;;;;;;5071009;28;20599;-70
2023/01/06 11:29:28;;;;;;;2.97;0.50;;;11.90;99.90;;;;;;5073047;28;20978;-69
2023/01/06 11:31:55;;;;;;;0.60;0.40;;;11.90;99.90;;;;;;5072679;28;20488;-69
2023/01/06 11:34:23;;;;;;;1.13;0.60;;;12.00;99.90;;;;;;5072585;28;20541;-70
2023/01/06 11:36:50;;;;;;;0.70;0.40;;;12.00;99.90;;;;;;5073241;28;20458;-70
2023/01/06 11:39:26;;;;;;;0.60;0.40;;;11.90;99.90;;;;;;5072563;28;20541;-70
2023/01/06 11:41:53;;;;;;;3.47;0.40;;;12.00;99.90;;;;;;5072826;28;20969;-70
2023/01/06 11:44:28;;;;;;;0.60;0.50;;;12.00;99.90;;;;;;5072817;28;20512;-70
2023/01/06 11:47:03;;;;;;;0.80;0.40;;;12.10;99.90;;;;;;5072471;28;20481;-70
2023/01/06 11:49:51;;;;;;;0.60;0.40;;;12.20;99.90;;;;;;5073099;28;20763;-70
2023/01/06 11:52:16;;;;;;;0.60;0.37;;;12.10;99.90;;;;;;5072490;28;20427;-70
2023/01/06 11:54:42;;;;;;;0.60;0.43;;;12.20;99.90;;;;;;5072256;28;20875;-70
2023/01/06 11:57:35;;;;;;;0.90;0.50;;;12.20;99.90;;;;;;5072347;28;20680;-70
2023/01/06 12:00:08;;;;;;;0.70;0.40;;;12.20;99.90;;;;;;5052613;28;20790;-70
2023/01/06 12:03:02;;;;;;;1.67;1.23;;;12.20;99.90;;;;;;5044265;28;20455;-69
2023/01/06 12:05:41;;;;;;;1.50;0.70;;;12.30;99.90;;;;;;5052325;28;20558;-70
2023/01/06 12:08:39;;;;;;;0.97;0.70;;;12.30;99.90;;;;;;5052831;28;20471;-70
2023/01/06 12:11:18;;;;;;;0.60;0.50;;;12.40;99.90;;;;;;5024290;28;20982;-68
2023/01/06 12:13:43;;;;;;;0.83;0.60;;;12.40;99.90;;;;;;5064610;28;20463;-70
2023/01/06 12:16:21;;;;;;;3.00;0.73;;;12.40;99.90;;;;;;5072043;28;20451;-70
2023/01/06 12:18:48;;;;;;;2.23;0.70;;;12.30;99.90;;;;;;5071911;28;20616;-70
2023/01/06 12:21:20;;;;;;;0.73;0.60;;;12.30;99.90;;;;;;5071674;28;20455;-71
2023/01/06 12:23:48;;;;;;;1.20;0.70;;;12.30;99.90;;;;;;5071979;28;20455;-71
2023/01/06 12:26:18;;;;;;;0.60;0.50;;;12.30;99.90;;;;;;5071928;28;20474;-71
2023/01/06 12:28:46;;;;;;;0.70;0.60;;;12.20;99.90;;;;;;5071888;28;20443;-71
2023/01/06 12:31:26;;;;;;;0.83;0.70;;;12.20;99.90;;;;;;5071749;28;20566;-71
2023/01/06 12:34:02;;;;;;;0.90;0.60;;;12.20;99.90;;;;;;5065278;28;20518;-71
2023/01/06 12:36:39;;;;;;;1.23;0.70;;;12.10;99.90;;;;;;5072013;28;20585;-71
2023/01/06 12:39:11;;;;;;;2.80;0.90;;;12.10;99.90;;;;;;5071845;28;20454;-71
2023/01/06 12:41:40;;;;;;;1.47;1.00;;;12.00;99.90;;;;;;5071369;28;20446;-71
2023/01/06 12:44:16;;;;;;;0.80;0.60;;;12.00;99.90;;;;;;5071665;28;20442;-71
2023/01/06 12:46:55;;;;;;;0.70;0.53;;;12.00;99.90;;;;;;5071452;28;20934;-71
2023/01/06 12:49:33;;;;;;;3.07;0.80;;;12.10;99.90;;;;;;5071586;28;20462;-71
2023/01/06 12:52:05;;;;;;;1.10;0.53;;;12.10;99.90;;;;;;5051229;28;20516;-71
2023/01/06 12:54:35;;;;;;;0.97;0.73;;;12.10;99.90;;;;;;5070123;28;20458;-71
2023/01/06 12:57:12;;;;;;;0.90;0.70;;;12.20;99.90;;;;;;5071354;28;20821;-71
2023/01/06 13:00:01;;;;;;;1.10;0.60;;;12.30;99.90;;;;;;5071677;28;20486;-71
2023/01/06 13:02:30;;;;;;;3.40;0.60;;;12.30;99.90;;;;;;5062128;28;21080;-72
2023/01/06 13:05:25;;;;;;;2.90;0.50;;;12.30;99.90;;;;;;5065148;28;20456;-71
2023/01/06 13:08:17;;;;;;;4.93;0.70;;;12.30;99.90;;;;;;5043048;28;20487;-71
2023/01/06 13:10:46;;;;;;;3.80;0.50;;;12.40;99.90;;;;;;5071310;28;20534;-71
2023/01/06 13:13:22;;;;;;;3.73;0.60;;;12.40;99.90;;;;;;5063723;28;20562;-71
2023/01/06 13:15:51;;;;;;;0.80;0.60;;;12.40;99.90;;;;;;5051610;28;20568;-71
2023/01/06 13:18:31;;;;;;;1.10;0.50;;;12.40;99.90;;;;;;5052291;28;20971;-71
2023/01/06 13:21:02;;;;;;;0.77;0.43;;;12.40;99.90;;;;;;5051311;28;20564;-71
2023/01/06 13:23:36;;;;;;;1.43;0.60;;;12.40;99.90;;;;;;5059198;28;20585;-71
2023/01/06 13:26:35;;;;;;;0.70;0.50;;;12.30;99.90;;;;;;5071101;28;20978;-72
2023/01/06 13:29:33;;;;;;;3.90;0.50;;;12.30;99.90;;;;;;5061811;28;20464;-71
2023/01/06 13:32:17;;;;;;;0.80;0.70;;;12.30;99.90;;;;;;5050458;28;20463;-72
2023/01/06 13:35:01;;;;;;;1.10;0.67;;;12.30;99.90;;;;;;5069900;28;20986;-71
2023/01/06 13:37:38;;;;;;;1.50;0.90;;;12.20;99.90;;;;;;5070690;28;20454;-72
2023/01/06 13:40:10;;;;;;;1.13;0.70;;;12.20;99.90;;;;;;5073842;28;20458;-69
2023/01/06 13:42:53;;;;;;;0.73;0.70;;;12.20;99.90;;;;;;5061181;28;20430;-69
2023/01/06 13:45:24;;;;;;;1.37;0.80;;;12.20;99.90;;;;;;5071482;28;20483;-72
2023/01/06 13:47:50;;;;;;;1.17;1.00;;;12.10;99.90;;;;;;5071677;28;20478;-72
2023/01/06 13:50:18;;;;;;;1.33;0.60;;;12.10;99.90;;;;;;5070957;28;20444;-72
2023/01/06 13:52:44;;;;;;;0.83;0.60;;;12.00;99.90;;;;;;5070108;28;20999;-71
2023/01/06 13:55:32;;;;;;;0.80;0.60;;;12.00;99.90;;;;;;5070340;28;20521;-72
2023/01/06 13:58:29;;;;;;;0.80;0.60;;;12.00;99.90;;;;;;5070718;28;20326;-71
2023/01/06 14:01:19;;;;;;;0.70;0.60;;;12.00;99.90;;;;;;5070411;28;20430;-71
2023/01/06 14:03:47;;;;;;;0.77;0.60;;;12.00;99.90;;;;;;5069851;28;20478;-71
2023/01/06 14:06:22;;;;;;;0.70;0.60;;;11.90;99.90;;;;;;5070337;28;21009;-71
2023/01/06 14:08:50;;;;;;;0.97;0.50;;;11.90;99.90;;;;;;5070220;28;20442;-70
2023/01/06 14:11:24;;;;;;;1.10;0.70;;;11.80;99.90;;;;;;5069920;28;20435;-70
2023/01/06 14:14:01;;;;;;;0.90;0.70;;;11.90;99.90;;;;;;5070150;28;20469;-71
2023/01/06 14:16:45;;;;;;;0.60;0.50;;;11.90;99.90;;;;;;5070023;28;20887;-69
2023/01/06 14:19:36;;;;;;;0.93;0.50;;;11.90;99.90;;;;;;5070029;28;20458;-69
2023/01/06 14:22:21;;;;;;;0.90;0.60;;;11.90;99.90;;;;;;5069491;28;20446;-69
2023/01/06 14:25:02;;;;;;;0.93;0.50;;;11.90;99.90;;;;;;5069896;28;20531;-70
2023/01/06 14:27:45;;;;;;;1.13;0.90;;;11.90;99.90;;;;;;5069954;28;20462;-70
2023/01/06 14:30:22;;;;;;;0.80;0.80;;;11.80;99.90;;;;;;5069648;28;21013;-70
2023/01/06 14:32:47;;;;;;;1.37;0.70;;;11.80;99.90;;;;;;5069152;28;20531;-70
2023/01/06 14:35:15;;;;;;;1.00;0.60;;;11.70;99.90;;;;;;5051821;28;20463;-71
2023/01/06 14:37:46;;;;;;;0.83;0.83;;;11.70;99.90;;;;;;5050196;28;20212;-70
2023/01/06 14:40:30;;;;;;;1.93;1.00;;;11.60;99.90;;;;;;5049984;28;20466;-70
2023/01/06 14:43:03;;;;;;;0.70;0.70;;;11.50;99.90;;;;;;5062768;28;20454;-71